ENVD

Vadsø Airport

Vadsø, Norway
METAR ENVD 252220Z 31018KT CAVOK 08/02 Q1015
Observed Flight Rules
May-25 @ 22:20 UTC (6 hours ago) Visual Flight Rules
Wind Visibility Clouds
310° at 18 knots 10,000+ meters
  • Clear skies
Temperatures Readings
Current 8°C / 46°F
Dewpoint 2°C / 36°F
Humidity 66%
Altimeter 29.97" Hg
Pressure 1015 hPa
Elevation 39
METAR ENVD 252220Z 31018KT CAVOK 08/02 Q1015
Observed Flight Rules
May-25 @ 22:20 UTC
(6 hours ago)
VFR
Wind Visibility
310° at 18 knots 10,000+ meters
Clouds
  • Clear skies
Temperature Dewpoint
8°C / 46°F 2°C / 36°F
Humidity Altimeter Pressure
66% 29.97" Hg 1015 hPa